sensor_id;sensor_type;location;lat;lon;timestamp;pressure;altitude;pressure_sealevel;temperature;humidity
61963;BME280;47927;42.646;23.096;2023-05-22T00:00:29;91909.75;;;14.09;62.30
61963;BME280;47927;42.646;23.096;2023-05-22T00:02:56;91890.25;;;14.18;62.16
61963;BME280;47927;42.646;23.096;2023-05-22T00:05:22;91885.44;;;14.54;60.75
61963;BME280;47927;42.646;23.096;2023-05-22T00:07:48;91904.44;;;14.65;60.60
61963;BME280;47927;42.646;23.096;2023-05-22T00:10:13;91871.94;;;14.55;60.08
61963;BME280;47927;42.646;23.096;2023-05-22T00:12:39;91834.28;;;13.97;61.09
61963;BME280;47927;42.646;23.096;2023-05-22T00:15:05;91898.72;;;14.32;61.21
61963;BME280;47927;42.646;23.096;2023-05-22T00:17:31;91813.94;;;13.74;61.58
61963;BME280;47927;42.646;23.096;2023-05-22T00:19:58;91843.97;;;14.00;61.08
61963;BME280;47927;42.646;23.096;2023-05-22T00:22:28;91897.75;;;14.61;60.51
61963;BME280;47927;42.646;23.096;2023-05-22T00:24:56;91898.88;;;14.59;60.11
61963;BME280;47927;42.646;23.096;2023-05-22T00:27:22;91832.88;;;14.27;59.48
61963;BME280;47927;42.646;23.096;2023-05-22T00:29:47;91860.59;;;14.24;60.21
61963;BME280;47927;42.646;23.096;2023-05-22T00:32:13;91866.34;;;14.12;60.84
61963;BME280;47927;42.646;23.096;2023-05-22T00:34:38;91817.28;;;14.16;60.32
61963;BME280;47927;42.646;23.096;2023-05-22T00:37:04;91857.41;;;14.06;61.41
61963;BME280;47927;42.646;23.096;2023-05-22T00:39:30;91807.72;;;13.50;62.21
61963;BME280;47927;42.646;23.096;2023-05-22T00:41:55;91833.75;;;13.72;62.32
61963;BME280;47927;42.646;23.096;2023-05-22T00:44:21;91899.09;;;13.86;62.99
61963;BME280;47927;42.646;23.096;2023-05-22T00:46:47;91821.03;;;13.18;63.70
61963;BME280;47927;42.646;23.096;2023-05-22T00:49:13;91866.72;;;13.65;63.48
61963;BME280;47927;42.646;23.096;2023-05-22T00:51:38;91878.00;;;13.55;63.94
61963;BME280;47927;42.646;23.096;2023-05-22T00:54:04;91898.41;;;13.78;63.59
61963;BME280;47927;42.646;23.096;2023-05-22T00:56:31;91809.03;;;13.28;63.08
61963;BME280;47927;42.646;23.096;2023-05-22T00:58:57;91896.47;;;13.86;63.23
61963;BME280;47927;42.646;23.096;2023-05-22T01:01:23;91857.56;;;13.36;63.82
61963;BME280;47927;42.646;23.096;2023-05-22T01:03:51;91887.53;;;13.80;63.60
61963;BME280;47927;42.646;23.096;2023-05-22T01:06:18;91885.16;;;13.48;64.34
61963;BME280;47927;42.646;23.096;2023-05-22T01:08:46;91813.53;;;13.27;63.86
61963;BME280;47927;42.646;23.096;2023-05-22T01:17:03;91798.03;;;12.84;64.94
61963;BME280;47927;42.646;23.096;2023-05-22T01:25:12;91844.41;;;13.47;64.28
61963;BME280;47927;42.646;23.096;2023-05-22T01:28:05;91877.38;;;13.89;63.29
61963;BME280;47927;42.646;23.096;2023-05-22T01:30:56;91875.59;;;13.79;63.66
61963;BME280;47927;42.646;23.096;2023-05-22T01:33:26;91815.00;;;13.25;63.79
61963;BME280;47927;42.646;23.096;2023-05-22T01:35:56;91875.84;;;13.91;62.92
61963;BME280;47927;42.646;23.096;2023-05-22T01:38:25;91879.06;;;13.61;64.49
61963;BME280;47927;42.646;23.096;2023-05-22T01:40:51;91876.69;;;14.26;62.03
61963;BME280;47927;42.646;23.096;2023-05-22T01:43:18;91874.75;;;13.93;62.81
61963;BME280;47927;42.646;23.096;2023-05-22T01:45:44;91857.84;;;13.49;63.87
61963;BME280;47927;42.646;23.096;2023-05-22T01:48:10;91832.16;;;13.29;64.30
61963;BME280;47927;42.646;23.096;2023-05-22T01:50:38;91834.91;;;13.04;65.59
61963;BME280;47927;42.646;23.096;2023-05-22T01:53:27;91872.13;;;13.89;63.54
61963;BME280;47927;42.646;23.096;2023-05-22T01:56:02;91875.53;;;13.86;63.60
61963;BME280;47927;42.646;23.096;2023-05-22T01:58:36;91866.94;;;13.30;65.41
61963;BME280;47927;42.646;23.096;2023-05-22T02:01:07;91839.44;;;12.93;66.23
61963;BME280;47927;42.646;23.096;2023-05-22T02:03:35;91871.81;;;13.20;66.01
61963;BME280;47927;42.646;23.096;2023-05-22T02:06:08;91871.03;;;13.34;65.52
61963;BME280;47927;42.646;23.096;2023-05-22T02:08:37;91869.78;;;13.53;65.06
61963;BME280;47927;42.646;23.096;2023-05-22T02:11:04;91869.56;;;13.30;65.60
61963;BME280;47927;42.646;23.096;2023-05-22T02:13:30;91810.00;;;12.85;65.52
61963;BME280;47927;42.646;23.096;2023-05-22T02:15:57;91867.72;;;13.19;66.10
61963;BME280;47927;42.646;23.096;2023-05-22T02:18:26;91847.16;;;13.21;65.91
61963;BME280;47927;42.646;23.096;2023-05-22T02:20:57;91867.09;;;12.90;67.19
61963;BME280;47927;42.646;23.096;2023-05-22T02:23:23;91872.25;;;13.08;66.51
61963;BME280;47927;42.646;23.096;2023-05-22T02:25:49;91810.41;;;12.76;66.17
61963;BME280;47927;42.646;23.096;2023-05-22T02:28:15;91859.47;;;13.25;65.28
61963;BME280;47927;42.646;23.096;2023-05-22T02:30:41;91879.59;;;13.35;65.31
61963;BME280;47927;42.646;23.096;2023-05-22T02:33:06;91881.06;;;13.43;65.61
61963;BME280;47927;42.646;23.096;2023-05-22T02:35:34;91871.00;;;13.38;64.87
61963;BME280;47927;42.646;23.096;2023-05-22T02:38:00;91877.09;;;13.13;65.86
61963;BME280;47927;42.646;23.096;2023-05-22T02:40:26;91869.81;;;13.46;64.59
61963;BME280;47927;42.646;23.096;2023-05-22T02:42:52;91865.69;;;13.49;64.52
61963;BME280;47927;42.646;23.096;2023-05-22T02:45:17;91781.28;;;13.37;62.95
61963;BME280;47927;42.646;23.096;2023-05-22T02:47:43;91880.34;;;13.91;62.62
61963;BME280;47927;42.646;23.096;2023-05-22T02:50:10;91880.28;;;13.46;64.23
61963;BME280;47927;42.646;23.096;2023-05-22T02:52:35;91870.56;;;13.47;63.95
61963;BME280;47927;42.646;23.096;2023-05-22T02:55:04;91814.50;;;13.44;62.75
61963;BME280;47927;42.646;23.096;2023-05-22T02:57:29;91871.72;;;13.42;63.98
61963;BME280;47927;42.646;23.096;2023-05-22T02:59:57;91821.09;;;13.66;62.24
61963;BME280;47927;42.646;23.096;2023-05-22T03:02:26;91811.19;;;13.85;61.15
61963;BME280;47927;42.646;23.096;2023-05-22T03:04:57;91873.19;;;14.40;60.22
61963;BME280;47927;42.646;23.096;2023-05-22T03:07:25;91881.09;;;14.74;59.36
61963;BME280;47927;42.646;23.096;2023-05-22T03:09:51;91866.66;;;14.93;58.15
61963;BME280;47927;42.646;23.096;2023-05-22T03:12:17;91878.13;;;15.07;57.71
61963;BME280;47927;42.646;23.096;2023-05-22T03:14:43;91872.78;;;14.83;58.95
61963;BME280;47927;42.646;23.096;2023-05-22T03:17:09;91851.56;;;14.70;58.76
61963;BME280;47927;42.646;23.096;2023-05-22T03:19:34;91857.69;;;15.21;57.02
61963;BME280;47927;42.646;23.096;2023-05-22T03:22:00;91877.75;;;15.62;56.40
61963;BME280;47927;42.646;23.096;2023-05-22T03:24:27;91878.66;;;15.79;55.69
61963;BME280;47927;42.646;23.096;2023-05-22T03:26:53;91856.94;;;15.21;57.00
61963;BME280;47927;42.646;23.096;2023-05-22T03:29:26;91780.19;;;14.86;56.19
61963;BME280;47927;42.646;23.096;2023-05-22T03:31:53;91828.69;;;15.32;56.08
61963;BME280;47927;42.646;23.096;2023-05-22T03:34:19;91842.97;;;15.00;56.92
61963;BME280;47927;42.646;23.096;2023-05-22T03:36:47;91817.13;;;14.68;57.88
61963;BME280;47927;42.646;23.096;2023-05-22T03:39:14;91879.59;;;15.38;57.14
61963;BME280;47927;42.646;23.096;2023-05-22T03:41:48;91873.81;;;15.50;56.28
61963;BME280;47927;42.646;23.096;2023-05-22T03:44:13;91878.25;;;15.54;56.44
61963;BME280;47927;42.646;23.096;2023-05-22T03:46:39;91880.94;;;15.50;56.21
61963;BME280;47927;42.646;23.096;2023-05-22T03:49:04;91880.28;;;15.97;54.86
61963;BME280;47927;42.646;23.096;2023-05-22T03:51:30;91876.91;;;16.20;53.39
61963;BME280;47927;42.646;23.096;2023-05-22T03:53:56;91866.25;;;16.27;52.38
61963;BME280;47927;42.646;23.096;2023-05-22T03:56:21;91889.16;;;16.50;52.73
61963;BME280;47927;42.646;23.096;2023-05-22T03:58:47;91854.00;;;16.63;51.08
61963;BME280;47927;42.646;23.096;2023-05-22T04:01:14;91890.97;;;17.16;50.74
61963;BME280;47927;42.646;23.096;2023-05-22T04:03:41;91879.72;;;17.68;48.37
61963;BME280;47927;42.646;23.096;2023-05-22T04:06:09;91856.34;;;18.36;47.72
61963;BME280;47927;42.646;23.096;2023-05-22T04:08:35;91901.41;;;18.74;46.79
61963;BME280;47927;42.646;23.096;2023-05-22T04:11:01;91872.94;;;18.95;45.48
61963;BME280;47927;42.646;23.096;2023-05-22T04:13:27;91892.09;;;19.79;44.81
61963;BME280;47927;42.646;23.096;2023-05-22T04:15:55;91841.44;;;20.41;41.59
61963;BME280;47927;42.646;23.096;2023-05-22T04:18:21;91890.97;;;22.13;38.29
61963;BME280;47927;42.646;23.096;2023-05-22T04:20:46;91847.59;;;23.11;35.98
61963;BME280;47927;42.646;23.096;2023-05-22T04:23:12;91788.69;;;23.88;32.60
61963;BME280;47927;42.646;23.096;2023-05-22T04:25:38;91879.91;;;24.85;32.28
61963;BME280;47927;42.646;23.096;2023-05-22T04:28:03;91888.34;;;25.82;30.04
61963;BME280;47927;42.646;23.096;2023-05-22T04:30:30;91838.00;;;25.89;29.25
61963;BME280;47927;42.646;23.096;2023-05-22T04:32:59;91824.69;;;25.60;28.91
61963;BME280;47927;42.646;23.096;2023-05-22T04:35:25;91833.19;;;25.43;28.71
61963;BME280;47927;42.646;23.096;2023-05-22T04:37:51;91903.78;;;26.07;29.22
61963;BME280;47927;42.646;23.096;2023-05-22T04:40:16;91893.78;;;26.78;28.39
61963;BME280;47927;42.646;23.096;2023-05-22T04:42:42;91868.53;;;26.39;27.58
61963;BME280;47927;42.646;23.096;2023-05-22T04:45:08;91903.97;;;26.04;28.71
61963;BME280;47927;42.646;23.096;2023-05-22T04:47:34;91917.69;;;26.32;28.74
61963;BME280;47927;42.646;23.096;2023-05-22T04:50:05;91905.56;;;24.97;30.91
61963;BME280;47927;42.646;23.096;2023-05-22T04:52:31;91899.59;;;24.64;31.86
61963;BME280;47927;42.646;23.096;2023-05-22T04:54:57;91913.50;;;23.59;32.76
61963;BME280;47927;42.646;23.096;2023-05-22T04:57:23;91892.00;;;22.92;34.53
61963;BME280;47927;42.646;23.096;2023-05-22T04:59:52;91907.47;;;23.31;35.14
61963;BME280;47927;42.646;23.096;2023-05-22T05:02:18;91860.28;;;22.70;34.08
61963;BME280;47927;42.646;23.096;2023-05-22T05:04:43;91912.94;;;23.36;34.38
61963;BME280;47927;42.646;23.096;2023-05-22T05:07:09;91919.47;;;23.87;33.56
61963;BME280;47927;42.646;23.096;2023-05-22T05:09:35;91880.47;;;22.40;33.60
61963;BME280;47927;42.646;23.096;2023-05-22T05:12:01;91921.47;;;21.99;34.84
61963;BME280;47927;42.646;23.096;2023-05-22T05:14:28;91930.53;;;21.89;34.70
61963;BME280;47927;42.646;23.096;2023-05-22T05:16:53;91917.63;;;23.60;31.58
61963;BME280;47927;42.646;23.096;2023-05-22T05:19:19;91890.56;;;25.83;28.87
61963;BME280;47927;42.646;23.096;2023-05-22T05:21:48;91917.69;;;29.04;24.85
61963;BME280;47927;42.646;23.096;2023-05-22T05:24:17;91924.88;;;29.46;23.75
61963;BME280;47927;42.646;23.096;2023-05-22T05:26:43;91928.59;;;30.16;21.70
61963;BME280;47927;42.646;23.096;2023-05-22T05:29:09;91931.44;;;30.75;21.58
61963;BME280;47927;42.646;23.096;2023-05-22T05:31:45;91914.94;;;29.81;22.52
61963;BME280;47927;42.646;23.096;2023-05-22T05:34:30;91933.50;;;28.48;24.05
61963;BME280;47927;42.646;23.096;2023-05-22T05:37:01;91922.19;;;27.43;25.64
61963;BME280;47927;42.646;23.096;2023-05-22T05:39:27;91937.84;;;25.98;27.78
61963;BME280;47927;42.646;23.096;2023-05-22T05:41:54;91925.31;;;25.59;28.64
61963;BME280;47927;42.646;23.096;2023-05-22T05:44:20;91886.72;;;24.62;28.21
61963;BME280;47927;42.646;23.096;2023-05-22T05:46:46;91909.97;;;28.69;23.92
61963;BME280;47927;42.646;23.096;2023-05-22T05:49:14;91902.88;;;30.66;21.05
61963;BME280;47927;42.646;23.096;2023-05-22T05:51:41;91930.28;;;31.70;20.82
61963;BME280;47927;42.646;23.096;2023-05-22T05:54:07;91939.94;;;32.26;19.41
61963;BME280;47927;42.646;23.096;2023-05-22T05:56:32;91937.78;;;32.98;18.89
61963;BME280;47927;42.646;23.096;2023-05-22T05:58:59;91947.91;;;33.35;18.63
61963;BME280;47927;42.646;23.096;2023-05-22T06:01:45;91957.34;;;32.55;19.75
61963;BME280;47927;42.646;23.096;2023-05-22T06:04:18;91953.88;;;32.30;18.96
61963;BME280;47927;42.646;23.096;2023-05-22T06:06:45;91947.53;;;33.44;17.61
61963;BME280;47927;42.646;23.096;2023-05-22T06:09:14;91951.09;;;34.09;17.90
61963;BME280;47927;42.646;23.096;2023-05-22T06:12:06;91960.59;;;35.75;16.29
61963;BME280;47927;42.646;23.096;2023-05-22T06:14:38;91954.13;;;35.18;15.88
61963;BME280;47927;42.646;23.096;2023-05-22T06:17:05;91980.16;;;35.21;16.00
61963;BME280;47927;42.646;23.096;2023-05-22T06:19:31;91938.56;;;33.36;17.43
61963;BME280;47927;42.646;23.096;2023-05-22T06:21:56;91956.94;;;33.19;18.64
61963;BME280;47927;42.646;23.096;2023-05-22T06:24:23;91928.31;;;33.86;17.87
61963;BME280;47927;42.646;23.096;2023-05-22T06:26:48;91958.91;;;35.38;17.14
61963;BME280;47927;42.646;23.096;2023-05-22T06:29:14;91954.53;;;35.22;16.08
61963;BME280;47927;42.646;23.096;2023-05-22T06:31:40;91961.91;;;34.55;17.35
61963;BME280;47927;42.646;23.096;2023-05-22T06:34:06;91930.09;;;36.17;16.22
61963;BME280;47927;42.646;23.096;2023-05-22T06:36:33;91943.69;;;34.55;16.28
61963;BME280;47927;42.646;23.096;2023-05-22T06:39:17;91947.41;;;32.93;18.35
61963;BME280;47927;42.646;23.096;2023-05-22T06:42:04;91964.97;;;30.57;20.12
61963;BME280;47927;42.646;23.096;2023-05-22T06:44:49;91954.84;;;28.74;21.69
61963;BME280;47927;42.646;23.096;2023-05-22T06:47:15;91956.91;;;31.38;19.71
61963;BME280;47927;42.646;23.096;2023-05-22T06:49:41;91953.06;;;32.89;17.85
61963;BME280;47927;42.646;23.096;2023-05-22T06:52:07;91954.09;;;31.60;18.39
61963;BME280;47927;42.646;23.096;2023-05-22T06:54:33;91947.16;;;31.76;18.26
61963;BME280;47927;42.646;23.096;2023-05-22T06:56:58;91961.13;;;32.46;18.67
61963;BME280;47927;42.646;23.096;2023-05-22T06:59:26;91929.31;;;32.63;18.17
61963;BME280;47927;42.646;23.096;2023-05-22T07:01:51;91962.06;;;31.41;19.09
61963;BME280;47927;42.646;23.096;2023-05-22T07:04:25;91959.69;;;32.04;19.31
61963;BME280;47927;42.646;23.096;2023-05-22T07:07:12;91959.81;;;31.92;19.74
61963;BME280;47927;42.646;23.096;2023-05-22T07:09:38;91966.47;;;30.02;21.09
61963;BME280;47927;42.646;23.096;2023-05-22T07:12:04;91945.50;;;27.37;24.21
61963;BME280;47927;42.646;23.096;2023-05-22T07:14:32;91939.75;;;27.23;24.74
61963;BME280;47927;42.646;23.096;2023-05-22T07:16:57;91934.88;;;27.74;24.13
61963;BME280;47927;42.646;23.096;2023-05-22T07:19:27;91952.97;;;29.62;22.96
61963;BME280;47927;42.646;23.096;2023-05-22T07:21:56;91969.09;;;31.50;22.18
61963;BME280;47927;42.646;23.096;2023-05-22T07:24:22;91937.81;;;31.41;19.97
61963;BME280;47927;42.646;23.096;2023-05-22T07:26:49;91955.63;;;30.75;19.87
61963;BME280;47927;42.646;23.096;2023-05-22T07:29:15;91959.56;;;30.74;20.96
61963;BME280;47927;42.646;23.096;2023-05-22T07:31:43;91954.00;;;30.27;21.70
61963;BME280;47927;42.646;23.096;2023-05-22T07:34:09;91960.13;;;30.10;22.43
61963;BME280;47927;42.646;23.096;2023-05-22T07:36:35;91960.19;;;27.99;24.96
61963;BME280;47927;42.646;23.096;2023-05-22T07:39:02;91906.00;;;27.05;25.89
61963;BME280;47927;42.646;23.096;2023-05-22T07:41:31;91946.56;;;25.39;28.24
61963;BME280;47927;42.646;23.096;2023-05-22T07:43:56;91945.34;;;25.40;29.26
61963;BME280;47927;42.646;23.096;2023-05-22T07:46:27;91941.28;;;28.94;24.29
61963;BME280;47927;42.646;23.096;2023-05-22T07:48:57;91951.38;;;31.66;21.53
61963;BME280;47927;42.646;23.096;2023-05-22T07:51:23;91944.38;;;32.53;19.83
61963;BME280;47927;42.646;23.096;2023-05-22T07:53:50;91952.56;;;32.91;20.34
61963;BME280;47927;42.646;23.096;2023-05-22T07:56:16;91913.78;;;31.90;19.13
61963;BME280;47927;42.646;23.096;2023-05-22T07:58:43;91969.34;;;30.71;20.80
61963;BME280;47927;42.646;23.096;2023-05-22T08:01:13;91946.72;;;31.66;20.43
61963;BME280;47927;42.646;23.096;2023-05-22T08:03:40;91966.81;;;29.38;21.24
61963;BME280;47927;42.646;23.096;2023-05-22T08:06:05;91921.44;;;29.35;22.24
61963;BME280;47927;42.646;23.096;2023-05-22T08:08:31;91949.81;;;31.82;20.19
61963;BME280;47927;42.646;23.096;2023-05-22T08:10:58;91903.59;;;31.30;19.10
61963;BME280;47927;42.646;23.096;2023-05-22T08:13:23;91967.78;;;32.04;18.37
61963;BME280;47927;42.646;23.096;2023-05-22T08:15:49;91964.13;;;32.86;19.68
61963;BME280;47927;42.646;23.096;2023-05-22T08:18:14;91923.13;;;33.88;16.81
61963;BME280;47927;42.646;23.096;2023-05-22T08:20:40;91962.63;;;33.91;17.57
61963;BME280;47927;42.646;23.096;2023-05-22T08:23:06;91977.19;;;34.20;16.57
61963;BME280;47927;42.646;23.096;2023-05-22T08:25:31;91906.78;;;32.06;18.32
61963;BME280;47927;42.646;23.096;2023-05-22T08:27:57;91966.56;;;33.33;18.92
61963;BME280;47927;42.646;23.096;2023-05-22T08:30:22;91959.78;;;33.83;17.71
61963;BME280;47927;42.646;23.096;2023-05-22T08:32:48;91997.56;;;31.81;19.98
61963;BME280;47927;42.646;23.096;2023-05-22T08:35:13;91975.44;;;30.83;20.01
61963;BME280;47927;42.646;23.096;2023-05-22T08:37:39;91962.81;;;31.30;19.35
61963;BME280;47927;42.646;23.096;2023-05-22T08:40:07;91954.38;;;31.98;20.15
61963;BME280;47927;42.646;23.096;2023-05-22T08:42:35;91889.22;;;31.17;19.92
61963;BME280;47927;42.646;23.096;2023-05-22T08:45:01;91960.66;;;31.18;19.25
61963;BME280;47927;42.646;23.096;2023-05-22T08:47:28;91962.59;;;31.23;21.17
61963;BME280;47927;42.646;23.096;2023-05-22T08:49:58;91960.91;;;32.08;19.85
61963;BME280;47927;42.646;23.096;2023-05-22T08:52:32;91976.00;;;32.22;19.37
61963;BME280;47927;42.646;23.096;2023-05-22T08:55:02;91898.84;;;32.44;18.79
61963;BME280;47927;42.646;23.096;2023-05-22T08:57:28;91951.91;;;32.30;18.74
61963;BME280;47927;42.646;23.096;2023-05-22T08:59:54;91966.38;;;31.97;20.49
61963;BME280;47927;42.646;23.096;2023-05-22T09:02:19;91970.94;;;31.14;19.36
61963;BME280;47927;42.646;23.096;2023-05-22T09:04:46;91967.88;;;30.70;20.29
61963;BME280;47927;42.646;23.096;2023-05-22T09:07:11;91964.25;;;29.89;20.76
61963;BME280;47927;42.646;23.096;2023-05-22T09:09:38;91971.66;;;29.23;21.78
61963;BME280;47927;42.646;23.096;2023-05-22T09:12:08;91966.66;;;28.99;23.01
61963;BME280;47927;42.646;23.096;2023-05-22T09:14:41;91960.22;;;28.74;23.05
61963;BME280;47927;42.646;23.096;2023-05-22T09:17:08;91962.63;;;28.72;24.04
61963;BME280;47927;42.646;23.096;2023-05-22T09:19:35;91892.50;;;28.90;22.35
61963;BME280;47927;42.646;23.096;2023-05-22T09:22:04;91953.66;;;29.40;22.51
61963;BME280;47927;42.646;23.096;2023-05-22T09:24:36;91899.56;;;28.88;22.37
61963;BME280;47927;42.646;23.096;2023-05-22T09:27:05;91915.41;;;28.80;22.74
61963;BME280;47927;42.646;23.096;2023-05-22T09:29:30;91954.25;;;28.58;24.25
61963;BME280;47927;42.646;23.096;2023-05-22T09:31:58;91960.69;;;27.77;23.64
61963;BME280;47927;42.646;23.096;2023-05-22T09:34:27;91959.75;;;27.54;24.28
61963;BME280;47927;42.646;23.096;2023-05-22T09:37:00;91912.84;;;27.33;22.82
61963;BME280;47927;42.646;23.096;2023-05-22T09:39:37;91906.41;;;27.19;22.44
61963;BME280;47927;42.646;23.096;2023-05-22T09:42:04;91956.59;;;27.30;23.47
61963;BME280;47927;42.646;23.096;2023-05-22T09:44:30;91947.00;;;28.27;22.36
61963;BME280;47927;42.646;23.096;2023-05-22T09:46:56;91948.28;;;28.80;22.23
61963;BME280;47927;42.646;23.096;2023-05-22T09:49:21;91938.34;;;28.44;22.01
61963;BME280;47927;42.646;23.096;2023-05-22T09:51:47;91943.13;;;29.25;21.78
61963;BME280;47927;42.646;23.096;2023-05-22T09:54:14;91967.31;;;29.42;21.03
61963;BME280;47927;42.646;23.096;2023-05-22T09:56:41;91945.69;;;29.63;20.46
61963;BME280;47927;42.646;23.096;2023-05-22T09:59:08;91948.75;;;29.27;21.90
61963;BME280;47927;42.646;23.096;2023-05-22T10:01:37;91868.66;;;28.01;20.65
61963;BME280;47927;42.646;23.096;2023-05-22T10:04:04;91850.28;;;26.78;23.00
61963;BME280;47927;42.646;23.096;2023-05-22T10:06:31;91929.22;;;27.66;22.90
61963;BME280;47927;42.646;23.096;2023-05-22T10:09:04;91928.28;;;28.33;21.66
61963;BME280;47927;42.646;23.096;2023-05-22T10:11:32;91951.44;;;28.04;21.58
61963;BME280;47927;42.646;23.096;2023-05-22T10:13:58;91890.34;;;28.03;21.76
61963;BME280;47927;42.646;23.096;2023-05-22T10:16:26;91938.34;;;27.08;23.86
61963;BME280;47927;42.646;23.096;2023-05-22T10:18:52;91935.09;;;27.70;24.00
61963;BME280;47927;42.646;23.096;2023-05-22T10:21:18;91887.31;;;27.89;24.33
61963;BME280;47927;42.646;23.096;2023-05-22T10:23:45;91942.16;;;26.80;25.14
61963;BME280;47927;42.646;23.096;2023-05-22T10:26:12;91946.28;;;26.11;25.33
61963;BME280;47927;42.646;23.096;2023-05-22T10:28:41;91931.28;;;26.13;25.25
61963;BME280;47927;42.646;23.096;2023-05-22T10:34:39;91886.22;;;23.22;31.52
61963;BME280;47927;42.646;23.096;2023-05-22T10:40:11;91950.88;;;23.46;31.88
61963;BME280;47927;42.646;23.096;2023-05-22T10:42:37;91926.97;;;23.28;32.66
61963;BME280;47927;42.646;23.096;2023-05-22T10:45:06;91895.78;;;22.36;32.25
61963;BME280;47927;42.646;23.096;2023-05-22T10:47:32;91946.28;;;23.65;32.02
61963;BME280;47927;42.646;23.096;2023-05-22T10:50:11;91875.44;;;23.25;31.38
61963;BME280;47927;42.646;23.096;2023-05-22T10:53:23;91942.69;;;24.20;30.61
61963;BME280;47927;42.646;23.096;2023-05-22T10:55:53;91829.44;;;22.91;30.87
61963;BME280;47927;42.646;23.096;2023-05-22T10:58:27;91940.81;;;23.59;31.44
61963;BME280;47927;42.646;23.096;2023-05-22T11:01:14;91942.28;;;21.78;34.52
61963;BME280;47927;42.646;23.096;2023-05-22T11:03:56;91955.38;;;22.44;34.25
61963;BME280;47927;42.646;23.096;2023-05-22T11:06:32;91968.75;;;22.32;32.99
61963;BME280;47927;42.646;23.096;2023-05-22T11:08:58;91970.66;;;19.91;40.34
61963;BME280;47927;42.646;23.096;2023-05-22T11:11:25;91994.66;;;19.13;46.36
61963;BME280;47927;42.646;23.096;2023-05-22T11:13:52;91944.88;;;18.20;55.85
61963;BME280;47927;42.646;23.096;2023-05-22T11:16:18;91993.81;;;18.54;55.39
61963;BME280;47927;42.646;23.096;2023-05-22T11:18:44;91966.31;;;17.66;57.39
61963;BME280;47927;42.646;23.096;2023-05-22T11:21:10;91983.06;;;18.61;58.29
61963;BME280;47927;42.646;23.096;2023-05-22T11:23:38;91973.94;;;18.82;57.16
61963;BME280;47927;42.646;23.096;2023-05-22T11:26:16;91956.22;;;18.83;57.53
61963;BME280;47927;42.646;23.096;2023-05-22T11:28:47;91962.19;;;19.29;53.13
61963;BME280;47927;42.646;23.096;2023-05-22T11:31:13;91951.28;;;19.27;50.55
61963;BME280;47927;42.646;23.096;2023-05-22T11:33:39;91931.19;;;19.17;50.19
61963;BME280;47927;42.646;23.096;2023-05-22T11:36:05;91938.94;;;19.91;50.72
61963;BME280;47927;42.646;23.096;2023-05-22T11:38:31;91853.38;;;19.47;49.01
61963;BME280;47927;42.646;23.096;2023-05-22T11:40:57;91916.66;;;20.65;49.58
61963;BME280;47927;42.646;23.096;2023-05-22T11:43:29;91903.81;;;20.77;49.09
61963;BME280;47927;42.646;23.096;2023-05-22T11:46:15;91913.09;;;20.81;47.74
61963;BME280;47927;42.646;23.096;2023-05-22T11:48:41;91912.00;;;20.91;48.83
61963;BME280;47927;42.646;23.096;2023-05-22T11:51:07;91920.69;;;21.14;47.76
61963;BME280;47927;42.646;23.096;2023-05-22T11:53:34;91934.31;;;21.47;49.03
61963;BME280;47927;42.646;23.096;2023-05-22T11:56:04;91935.16;;;21.22;47.86
61963;BME280;47927;42.646;23.096;2023-05-22T11:58:30;91947.13;;;21.27;49.05
61963;BME280;47927;42.646;23.096;2023-05-22T12:00:57;91971.66;;;20.83;48.04
61963;BME280;47927;42.646;23.096;2023-05-22T12:03:23;92002.94;;;17.81;52.13
61963;BME280;47927;42.646;23.096;2023-05-22T12:05:49;91986.34;;;15.79;59.47
61963;BME280;47927;42.646;23.096;2023-05-22T12:08:15;92011.81;;;15.14;61.10
61963;BME280;47927;42.646;23.096;2023-05-22T12:10:48;91968.84;;;13.55;62.15
61963;BME280;47927;42.646;23.096;2023-05-22T12:13:14;92018.19;;;13.56;64.15
61963;BME280;47927;42.646;23.096;2023-05-22T12:15:39;92022.16;;;13.86;64.23
61963;BME280;47927;42.646;23.096;2023-05-22T12:18:08;91908.25;;;13.56;63.63
61963;BME280;47927;42.646;23.096;2023-05-22T12:20:34;92002.38;;;14.37;63.20
61963;BME280;47927;42.646;23.096;2023-05-22T12:22:59;92013.34;;;15.15;62.33
61963;BME280;47927;42.646;23.096;2023-05-22T12:25:32;92010.50;;;15.70;61.11
61963;BME280;47927;42.646;23.096;2023-05-22T12:28:01;91993.34;;;15.89;61.60
61963;BME280;47927;42.646;23.096;2023-05-22T12:30:26;91956.16;;;15.91;62.33
61963;BME280;47927;42.646;23.096;2023-05-22T12:32:52;91974.91;;;16.20;62.06
61963;BME280;47927;42.646;23.096;2023-05-22T12:35:18;91884.22;;;16.08;62.32
61963;BME280;47927;42.646;23.096;2023-05-22T12:37:50;91928.28;;;16.24;61.60
61963;BME280;47927;42.646;23.096;2023-05-22T12:40:16;91985.94;;;17.25;60.88
61963;BME280;47927;42.646;23.096;2023-05-22T12:42:42;91974.84;;;17.54;61.33
61963;BME280;47927;42.646;23.096;2023-05-22T12:45:10;91965.91;;;17.88;62.20
61963;BME280;47927;42.646;23.096;2023-05-22T12:47:36;91964.38;;;18.23;61.53
61963;BME280;47927;42.646;23.096;2023-05-22T12:50:02;91963.81;;;18.48;61.86
61963;BME280;47927;42.646;23.096;2023-05-22T12:52:27;91961.66;;;18.76;61.49
61963;BME280;47927;42.646;23.096;2023-05-22T12:54:53;91934.28;;;18.86;59.89
61963;BME280;47927;42.646;23.096;2023-05-22T12:57:18;91851.53;;;18.47;59.90
61963;BME280;47927;42.646;23.096;2023-05-22T12:59:44;91954.09;;;19.49;57.29
61963;BME280;47927;42.646;23.096;2023-05-22T13:02:09;91947.94;;;19.81;59.18
61963;BME280;47927;42.646;23.096;2023-05-22T13:04:35;91952.69;;;20.12;54.66
61963;BME280;47927;42.646;23.096;2023-05-22T13:07:01;91909.94;;;20.26;53.84
61963;BME280;47927;42.646;23.096;2023-05-22T13:09:26;91943.44;;;20.67;51.49
61963;BME280;47927;42.646;23.096;2023-05-22T13:11:52;91927.63;;;20.77;50.44